createdAt,value
2018-12-04T00:02:17.907Z,1.22
2018-12-04T00:04:45.430Z,1.70
2018-12-04T00:07:12.983Z,1.20
2018-12-04T00:09:40.519Z,1.45
2018-12-04T00:12:08.106Z,1.20
2018-12-04T00:14:35.644Z,1.50
2018-12-04T00:17:03.292Z,1.80
2018-12-04T00:19:30.931Z,1.30
2018-12-04T00:21:58.534Z,1.20
2018-12-04T00:24:26.066Z,1.40
2018-12-04T00:26:53.683Z,1.47
2018-12-04T00:29:21.207Z,1.72
2018-12-04T00:31:48.826Z,1.77
2018-12-04T00:34:16.370Z,1.50
2018-12-04T00:36:43.904Z,1.60
2018-12-04T00:39:11.446Z,2.00
2018-12-04T00:41:39.011Z,1.90
2018-12-04T00:44:06.691Z,1.80
2018-12-04T00:46:34.258Z,2.05
2018-12-04T00:49:01.830Z,1.42
2018-12-04T00:51:29.406Z,1.80
2018-12-04T00:53:56.953Z,1.60
2018-12-04T00:56:24.483Z,1.70
2018-12-04T00:58:52.028Z,1.70
2018-12-04T01:01:19.549Z,1.80
2018-12-04T01:03:47.095Z,1.55
2018-12-04T01:06:14.733Z,1.67
2018-12-04T01:08:42.329Z,1.70
2018-12-04T01:11:09.882Z,1.42
2018-12-04T01:13:37.460Z,1.55
2018-12-04T01:16:05.026Z,1.55
2018-12-04T01:18:32.579Z,1.85
2018-12-04T01:21:00.157Z,2.02
2018-12-04T01:23:27.747Z,2.10
2018-12-04T01:25:55.319Z,1.85
2018-12-04T01:28:22.991Z,2.20
2018-12-04T01:30:50.527Z,1.50
2018-12-04T01:33:18.074Z,1.82
2018-12-04T01:35:45.707Z,1.90
2018-12-04T01:38:13.290Z,2.05
2018-12-04T01:40:40.858Z,2.00
2018-12-04T01:43:08.430Z,1.80
2018-12-04T01:45:35.993Z,1.85
2018-12-04T01:48:03.580Z,2.00
2018-12-04T01:50:31.146Z,1.70
2018-12-04T01:52:58.711Z,1.70
2018-12-04T01:55:26.283Z,1.98
2018-12-04T01:57:53.858Z,1.30
2018-12-04T02:00:21.427Z,1.82
2018-12-04T02:02:49.130Z,1.65
2018-12-04T02:05:16.778Z,1.55
2018-12-04T02:07:44.354Z,1.82
2018-12-04T02:10:11.886Z,1.70
2018-12-04T02:12:39.410Z,1.85
2018-12-04T02:15:07.142Z,1.47
2018-12-04T02:17:34.730Z,2.12
2018-12-04T02:20:02.415Z,1.80
2018-12-04T02:22:29.990Z,1.62
2018-12-04T02:24:57.538Z,1.50
2018-12-04T02:27:25.136Z,1.70
2018-12-04T02:29:52.681Z,1.20
2018-12-04T02:32:20.270Z,1.70
2018-12-04T02:34:47.859Z,1.55
2018-12-04T02:37:15.422Z,1.20
2018-12-04T02:39:42.972Z,1.62
2018-12-04T02:42:10.567Z,1.25
2018-12-04T02:44:38.118Z,1.90
2018-12-04T02:47:05.681Z,1.32
2018-12-04T02:49:33.222Z,1.20
2018-12-04T02:52:00.759Z,1.82
2018-12-04T02:54:28.335Z,1.60
2018-12-04T02:56:55.866Z,1.70
2018-12-04T02:59:23.450Z,1.47
2018-12-04T03:01:50.984Z,1.45
2018-12-04T03:04:18.618Z,1.32
2018-12-04T03:06:46.186Z,1.10
2018-12-04T03:09:13.831Z,1.50
2018-12-04T03:11:41.394Z,1.30
2018-12-04T03:14:08.942Z,1.40
2018-12-04T03:16:36.484Z,1.70
2018-12-04T03:19:04.159Z,1.72
2018-12-04T03:21:31.726Z,1.90
2018-12-04T03:23:59.318Z,1.90
2018-12-04T03:26:26.944Z,1.32
2018-12-04T03:28:54.490Z,1.75
2018-12-04T03:31:22.063Z,1.65
2018-12-04T03:33:49.763Z,1.52
2018-12-04T03:36:17.377Z,1.75
2018-12-04T03:38:44.930Z,1.22
2018-12-04T03:41:12.454Z,1.35
2018-12-04T03:43:40.049Z,1.55
2018-12-04T03:46:07.630Z,1.30
2018-12-04T03:48:35.254Z,1.65
2018-12-04T03:51:02.870Z,1.65
2018-12-04T03:53:30.475Z,1.90
2018-12-04T03:55:58.050Z,1.30
2018-12-04T03:58:25.587Z,1.90
2018-12-04T04:00:53.196Z,2.20
2018-12-04T04:03:20.870Z,2.10
2018-12-04T04:05:48.440Z,1.75
2018-12-04T04:08:16.015Z,1.87
2018-12-04T04:10:43.561Z,2.02
2018-12-04T04:13:11.095Z,1.50
2018-12-04T04:15:38.679Z,1.47
2018-12-04T04:18:06.215Z,1.85
2018-12-04T04:20:33.774Z,1.60
2018-12-04T04:23:01.343Z,1.70
2018-12-04T04:25:28.924Z,1.87
2018-12-04T04:27:56.487Z,2.02
2018-12-04T04:30:24.074Z,2.27
2018-12-04T04:32:51.733Z,2.52
2018-12-04T04:35:19.310Z,3.40
2018-12-04T04:37:46.987Z,3.00
2018-12-04T04:40:14.535Z,2.02
2018-12-04T04:42:42.116Z,2.80
2018-12-04T04:45:09.803Z,2.05
2018-12-04T04:47:37.374Z,1.75
2018-12-04T04:50:05.145Z,2.08
2018-12-04T04:52:32.727Z,1.80
2018-12-04T04:55:00.302Z,2.77
2018-12-04T04:57:27.966Z,3.05
2018-12-04T04:59:55.511Z,2.00
2018-12-04T05:02:23.042Z,2.77
2018-12-04T05:04:50.586Z,1.87
2018-12-04T05:07:18.162Z,2.10
2018-12-04T05:09:45.715Z,2.62
2018-12-04T05:12:13.270Z,1.95
2018-12-04T05:14:40.824Z,1.70
2018-12-04T05:17:08.404Z,2.00
2018-12-04T05:19:35.953Z,2.10
2018-12-04T05:22:03.514Z,2.05
2018-12-04T05:24:31.059Z,2.83
2018-12-04T05:26:58.630Z,2.60
2018-12-04T05:29:26.183Z,3.62
2018-12-04T05:31:53.714Z,3.40
2018-12-04T05:34:21.266Z,3.60
2018-12-04T05:36:48.799Z,3.83
2018-12-04T05:39:16.333Z,3.80
2018-12-04T05:41:43.932Z,3.60
2018-12-04T05:44:11.466Z,3.12
2018-12-04T05:46:39.011Z,3.35
2018-12-04T05:49:06.538Z,3.55
2018-12-04T05:51:34.087Z,3.67
2018-12-04T05:54:01.610Z,3.22
2018-12-04T05:56:29.153Z,3.60
2018-12-04T05:58:56.678Z,3.70
2018-12-04T06:01:24.227Z,3.22
2018-12-04T06:03:51.759Z,3.42
2018-12-04T06:06:19.321Z,4.50
2018-12-04T06:08:46.845Z,4.97
2018-12-04T06:11:14.396Z,5.55
2018-12-04T06:13:41.993Z,5.03
2018-12-04T06:16:09.588Z,4.42
2018-12-04T06:18:37.246Z,5.67
2018-12-04T06:21:04.922Z,5.65
2018-12-04T06:23:32.614Z,4.47
2018-12-04T06:26:00.274Z,5.17
2018-12-04T06:28:27.802Z,5.08
2018-12-04T06:30:55.398Z,7.20
2018-12-04T06:33:22.928Z,6.60
2018-12-04T06:35:50.523Z,5.22
2018-12-04T06:38:18.055Z,5.60
2018-12-04T06:40:45.706Z,5.25
2018-12-04T06:43:13.278Z,6.08
2018-12-04T06:45:40.851Z,6.90
2018-12-04T06:48:08.374Z,6.20
2018-12-04T06:50:35.990Z,7.03
2018-12-04T06:53:03.562Z,7.03
2018-12-04T06:55:31.243Z,6.17
2018-12-04T06:57:58.913Z,6.62
2018-12-04T07:00:26.509Z,5.78
2018-12-04T07:02:54.085Z,4.72
2018-12-04T07:05:21.679Z,5.62
2018-12-04T07:07:49.213Z,5.30
2018-12-04T07:10:16.809Z,4.78
2018-12-04T07:12:44.381Z,4.95
2018-12-04T07:15:11.926Z,5.53
2018-12-04T07:17:39.459Z,5.55
2018-12-04T07:20:07.512Z,4.55
2018-12-04T07:22:35.155Z,5.10
2018-12-04T07:25:02.831Z,4.92
2018-12-04T07:27:30.398Z,4.87
2018-12-04T07:29:57.930Z,4.17
2018-12-04T07:32:25.552Z,4.50
2018-12-04T07:34:53.086Z,4.47
2018-12-04T07:37:20.670Z,4.95
2018-12-04T07:39:48.262Z,4.35
2018-12-04T07:42:15.810Z,4.40
2018-12-04T07:44:44.235Z,4.42
2018-12-04T07:47:11.831Z,5.47
2018-12-04T07:49:39.487Z,3.65
2018-12-04T07:52:07.152Z,4.60
2018-12-04T07:54:34.722Z,4.97
2018-12-04T07:57:02.319Z,5.03
2018-12-04T07:59:29.854Z,4.45
2018-12-04T08:01:57.433Z,5.40
2018-12-04T08:04:25.009Z,4.65
2018-12-04T08:06:52.587Z,4.40
2018-12-04T08:09:20.161Z,4.33
2018-12-04T08:11:47.830Z,4.42
2018-12-04T08:14:15.402Z,3.95
2018-12-04T08:16:42.974Z,3.50
2018-12-04T08:19:10.541Z,3.65
2018-12-04T08:21:38.097Z,2.83
2018-12-04T08:24:05.694Z,3.52
2018-12-04T08:26:33.366Z,3.50
2018-12-04T08:29:01.045Z,3.12
2018-12-04T08:31:28.720Z,3.40
2018-12-04T08:33:56.285Z,4.00
2018-12-04T08:36:23.862Z,3.25
2018-12-04T08:38:51.432Z,3.85
2018-12-04T08:41:19.001Z,3.60
2018-12-04T08:43:46.579Z,3.65
2018-12-04T08:46:14.153Z,2.70
2018-12-04T08:48:41.683Z,3.20
2018-12-04T08:51:09.260Z,2.80
2018-12-04T08:53:36.861Z,2.77
2018-12-04T08:56:04.543Z,3.15
2018-12-04T08:58:32.118Z,3.55
2018-12-04T09:00:59.695Z,3.37
2018-12-04T09:03:27.366Z,4.42
2018-12-04T09:05:54.936Z,2.72
2018-12-04T09:08:22.576Z,3.70
2018-12-04T09:10:50.185Z,2.52
2018-12-04T09:13:17.758Z,2.55
2018-12-04T09:15:45.326Z,5.72
2018-12-04T09:18:12.881Z,7.55
2018-12-04T09:20:40.602Z,8.68
2018-12-04T09:23:08.354Z,5.67
2018-12-04T09:25:35.959Z,2.52
2018-12-04T09:28:03.699Z,4.65
2018-12-04T09:30:31.353Z,3.17
2018-12-04T09:32:58.942Z,3.22
2018-12-04T09:35:26.513Z,2.75
2018-12-04T09:37:54.091Z,2.20
2018-12-04T09:40:21.766Z,2.50
2018-12-04T09:42:49.314Z,2.37
2018-12-04T09:45:16.846Z,2.58
2018-12-04T09:47:44.479Z,3.02
2018-12-04T09:50:12.050Z,2.65
2018-12-04T09:52:39.622Z,1.92
2018-12-04T09:55:07.205Z,1.55
2018-12-04T09:57:34.746Z,1.80
2018-12-04T10:00:02.449Z,1.57
2018-12-04T10:02:30.005Z,1.98
2018-12-04T10:04:57.590Z,2.10
2018-12-04T10:07:25.162Z,1.70
2018-12-04T10:09:52.738Z,2.33
2018-12-04T10:12:20.345Z,1.80
2018-12-04T10:14:47.896Z,1.62
2018-12-04T10:17:15.558Z,2.33
2018-12-04T10:19:43.126Z,2.40
2018-12-04T10:22:10.697Z,2.40
2018-12-04T10:24:38.374Z,2.17
2018-12-04T10:27:05.946Z,2.02
2018-12-04T10:29:33.522Z,2.17
2018-12-04T10:32:01.074Z,1.80
2018-12-04T10:34:28.681Z,2.60
2018-12-04T10:36:56.306Z,1.32
2018-12-04T10:39:23.835Z,1.75
2018-12-04T10:41:51.483Z,2.47
2018-12-04T10:44:19.010Z,1.62
2018-12-04T10:46:46.615Z,2.12
2018-12-04T10:49:14.194Z,4.33
2018-12-04T10:51:41.727Z,6.83
2018-12-04T10:54:09.319Z,7.17
2018-12-04T10:56:36.906Z,3.50
2018-12-04T10:59:04.487Z,14.43
2018-12-04T11:01:37.647Z,8.65
2018-12-04T11:04:05.266Z,7.72
2018-12-04T11:06:32.842Z,6.42
2018-12-04T11:09:00.415Z,2.55
2018-12-04T11:11:27.982Z,3.37
2018-12-04T11:13:55.558Z,2.27
2018-12-04T11:16:23.234Z,2.10
2018-12-04T11:18:50.810Z,2.70
2018-12-04T11:21:18.355Z,1.22
2018-12-04T11:23:45.954Z,2.40
2018-12-04T11:26:13.526Z,2.27
2018-12-04T11:28:41.118Z,1.30
2018-12-04T11:31:08.766Z,1.80
2018-12-04T11:33:36.311Z,1.80
2018-12-04T11:36:03.912Z,1.85
2018-12-04T11:38:31.482Z,2.35
2018-12-04T11:40:59.155Z,2.20
2018-12-04T11:43:26.702Z,3.55
2018-12-04T11:45:54.303Z,2.47
2018-12-04T11:48:21.956Z,2.90
2018-12-04T11:50:49.491Z,2.10
2018-12-04T11:53:17.044Z,1.92
2018-12-04T11:55:44.570Z,2.90
2018-12-04T11:58:12.266Z,1.80
2018-12-04T12:00:39.789Z,1.92
2018-12-04T12:03:07.339Z,1.55
2018-12-04T12:05:34.870Z,1.37
2018-12-04T12:08:02.449Z,1.60
2018-12-04T12:10:30.026Z,1.50
2018-12-04T12:12:57.702Z,1.60
2018-12-04T12:15:25.358Z,1.60
2018-12-04T12:17:52.901Z,1.50
2018-12-04T12:20:20.429Z,4.90
2018-12-04T12:22:48.023Z,1.50
2018-12-04T12:25:15.550Z,1.60
2018-12-04T12:27:43.236Z,1.67
2018-12-04T12:30:10.856Z,1.85
2018-12-04T12:32:38.486Z,2.37
2018-12-04T12:35:06.158Z,6.62
2018-12-04T12:37:33.705Z,5.17
2018-12-04T12:40:01.259Z,5.30
2018-12-04T12:42:28.837Z,2.45
2018-12-04T12:44:56.447Z,2.75
2018-12-04T12:47:24.019Z,1.42
2018-12-04T12:49:51.642Z,1.98
2018-12-04T12:52:19.171Z,1.50
2018-12-04T12:54:46.717Z,1.45
2018-12-04T12:57:14.318Z,1.92
2018-12-04T12:59:41.911Z,1.90
2018-12-04T13:02:09.522Z,1.80
2018-12-04T13:04:37.079Z,2.60
2018-12-04T13:07:04.620Z,1.60
2018-12-04T13:09:32.279Z,1.80
2018-12-04T13:11:59.955Z,1.85
2018-12-04T13:14:27.523Z,1.52
2018-12-04T13:16:55.103Z,2.22
2018-12-04T13:19:22.662Z,1.55
2018-12-04T13:21:50.280Z,2.00
2018-12-04T13:24:17.838Z,2.55
2018-12-04T13:26:45.374Z,1.77
2018-12-04T13:29:13.060Z,1.92
2018-12-04T13:31:40.633Z,2.58
2018-12-04T13:34:08.202Z,2.45
2018-12-04T13:36:35.775Z,2.95
2018-12-04T13:39:06.219Z,1.90
2018-12-04T13:41:33.892Z,1.47
2018-12-04T13:44:01.484Z,1.45
2018-12-04T13:46:29.034Z,1.50
2018-12-04T13:48:56.579Z,1.70
2018-12-04T13:51:24.186Z,1.98
2018-12-04T13:53:51.773Z,1.62
2018-12-04T13:56:19.447Z,1.60
2018-12-04T13:58:48.936Z,2.35
2018-12-04T14:01:16.725Z,2.15
2018-12-04T14:03:44.298Z,1.80
2018-12-04T14:06:11.991Z,2.17
2018-12-04T14:08:39.664Z,1.95
2018-12-04T14:11:07.313Z,2.08
2018-12-04T14:13:34.891Z,2.70
2018-12-04T14:16:02.464Z,2.47
2018-12-04T14:18:30.161Z,2.25
2018-12-04T14:20:57.880Z,2.20
2018-12-04T14:23:25.499Z,3.25
2018-12-04T14:25:53.183Z,2.55
2018-12-04T14:28:20.815Z,2.42
2018-12-04T14:30:48.405Z,2.47
2018-12-04T14:33:15.938Z,2.85
2018-12-04T14:35:43.551Z,2.92
2018-12-04T14:38:11.222Z,3.98
2018-12-04T14:40:38.898Z,1.85
2018-12-04T14:43:06.464Z,1.82
2018-12-04T14:45:34.059Z,1.70
2018-12-04T14:48:01.746Z,2.65
2018-12-04T14:50:29.526Z,2.80
2018-12-04T14:52:57.091Z,2.35
2018-12-04T14:55:24.775Z,6.70
2018-12-04T14:57:52.547Z,4.45
2018-12-04T15:00:20.707Z,2.67
2018-12-04T15:02:48.264Z,3.58
2018-12-04T15:05:15.961Z,4.45
2018-12-04T15:07:43.674Z,3.08
2018-12-04T15:10:11.705Z,2.70
2018-12-04T15:12:39.328Z,3.30
2018-12-04T15:15:07.096Z,3.12
2018-12-04T15:17:34.738Z,3.00
2018-12-04T15:20:02.648Z,2.77
2018-12-04T15:22:30.243Z,4.12
2018-12-04T15:24:57.937Z,4.25
2018-12-04T15:27:25.516Z,3.72
2018-12-04T15:29:53.434Z,3.45
2018-12-04T15:32:21.036Z,3.40
2018-12-04T15:34:48.721Z,3.12
2018-12-04T15:37:16.373Z,3.20
2018-12-04T15:39:44.442Z,3.60
2018-12-04T15:42:12.102Z,3.75
2018-12-04T15:44:39.779Z,2.95
2018-12-04T15:47:07.403Z,4.10
2018-12-04T15:49:35.099Z,4.10
2018-12-04T15:52:02.739Z,3.60
2018-12-04T15:54:30.686Z,3.15
2018-12-04T15:56:58.252Z,2.67
2018-12-04T15:59:25.896Z,4.20
2018-12-04T16:01:53.536Z,4.10
2018-12-04T16:04:21.174Z,3.67
2018-12-04T16:06:48.865Z,3.70
2018-12-04T16:09:16.522Z,3.65
2018-12-04T16:11:44.049Z,3.40
2018-12-04T16:14:11.681Z,5.10
2018-12-04T16:16:39.476Z,6.92
2018-12-04T16:19:07.087Z,5.83
2018-12-04T16:21:34.735Z,5.72
2018-12-04T16:24:02.746Z,7.10
2018-12-04T16:26:30.356Z,8.10
2018-12-04T16:28:57.890Z,7.28
2018-12-04T16:31:25.695Z,7.10
2018-12-04T16:33:53.281Z,7.85
2018-12-04T16:36:20.930Z,6.83
2018-12-04T16:38:48.458Z,7.35
2018-12-04T16:41:16.055Z,9.30
2018-12-04T16:43:43.579Z,9.63
2018-12-04T16:46:11.127Z,9.00
2018-12-04T16:48:38.714Z,12.28
2018-12-04T16:51:06.704Z,9.73
2018-12-04T16:53:34.411Z,11.83
2018-12-04T16:56:02.042Z,12.88
2018-12-04T16:58:29.784Z,9.70
2018-12-04T17:00:57.671Z,10.10
2018-12-04T17:03:25.275Z,7.55
2018-12-04T17:05:52.947Z,8.88
2018-12-04T17:08:20.606Z,10.45
2018-12-04T17:10:48.196Z,6.35
2018-12-04T17:13:15.761Z,6.70
2018-12-04T17:15:43.339Z,8.03
2018-12-04T17:18:10.909Z,7.65
2018-12-04T17:20:38.478Z,7.20
2018-12-04T17:23:06.054Z,7.30
2018-12-04T17:25:33.686Z,7.95
2018-12-04T17:28:01.323Z,6.80
2018-12-04T17:30:28.970Z,7.55
2018-12-04T17:32:56.754Z,7.25
2018-12-04T17:35:24.393Z,7.03
2018-12-04T17:37:52.011Z,7.50
2018-12-04T17:40:21.001Z,5.60
2018-12-04T17:42:48.866Z,5.60
2018-12-04T17:45:16.556Z,6.30
2018-12-04T17:47:44.139Z,6.35
2018-12-04T17:50:11.754Z,6.50
2018-12-04T17:52:39.282Z,6.12
2018-12-04T17:55:06.835Z,6.55
2018-12-04T17:57:34.431Z,5.97
2018-12-04T18:00:02.102Z,6.25
2018-12-04T18:02:29.645Z,6.45
2018-12-04T18:04:57.222Z,5.53
2018-12-04T18:07:24.776Z,6.67
2018-12-04T18:09:52.395Z,5.37
2018-12-04T18:12:19.941Z,4.20
2018-12-04T18:14:47.546Z,3.52
2018-12-04T18:17:15.206Z,3.12
2018-12-04T18:19:42.745Z,3.42
2018-12-04T18:22:10.342Z,3.05
2018-12-04T18:24:37.874Z,3.75
2018-12-04T18:27:06.302Z,2.77
2018-12-04T18:29:35.373Z,3.15
2018-12-04T18:32:03.207Z,3.55
2018-12-04T18:34:30.779Z,3.52
2018-12-04T18:36:58.342Z,4.03
2018-12-04T18:39:26.002Z,3.02
2018-12-04T18:41:53.707Z,5.35
2018-12-04T18:44:21.878Z,4.30
2018-12-04T18:46:49.455Z,7.65
2018-12-04T18:49:17.031Z,5.37
2018-12-04T18:51:44.798Z,5.70
2018-12-04T18:54:12.882Z,6.15
2018-12-04T18:56:40.461Z,7.45
2018-12-04T18:59:08.052Z,4.75
2018-12-04T19:01:35.691Z,5.28
2018-12-04T19:04:03.311Z,4.15
2018-12-04T19:06:32.195Z,4.40
2018-12-04T19:08:59.864Z,6.58
2018-12-04T19:11:27.410Z,6.15
2018-12-04T19:13:54.941Z,5.47
2018-12-04T19:16:22.531Z,7.67
2018-12-04T19:18:50.070Z,11.83
2018-12-04T19:21:17.862Z,16.15
2018-12-04T19:23:45.434Z,9.95
2018-12-04T19:26:12.990Z,12.25
2018-12-04T19:28:40.644Z,11.15
2018-12-04T19:31:08.282Z,9.13
2018-12-04T19:33:35.886Z,7.60
2018-12-04T19:36:03.572Z,9.05
2018-12-04T19:38:31.138Z,10.45
2018-12-04T19:40:58.691Z,14.55
2018-12-04T19:43:26.275Z,8.45
2018-12-04T19:45:53.883Z,12.70
2018-12-04T19:48:21.507Z,16.93
2018-12-04T19:50:49.056Z,12.25
2018-12-04T19:53:16.607Z,9.18
2018-12-04T19:55:44.223Z,8.58
2018-12-04T19:58:11.814Z,8.05
2018-12-04T20:00:39.439Z,5.62
2018-12-04T20:03:07.245Z,5.35
2018-12-04T20:05:34.819Z,3.95
2018-12-04T20:08:02.376Z,3.87
2018-12-04T20:10:30.030Z,4.15
2018-12-04T20:12:57.586Z,5.20
2018-12-04T20:15:25.275Z,5.90
2018-12-04T20:17:52.906Z,5.67
2018-12-04T20:20:20.487Z,16.12
2018-12-04T20:22:48.158Z,16.40
2018-12-04T20:25:15.732Z,12.93
2018-12-04T20:27:43.290Z,11.48
2018-12-04T20:30:11.156Z,13.30
2018-12-04T20:32:38.710Z,12.35
2018-12-04T20:35:06.533Z,9.68
2018-12-04T20:37:34.090Z,6.08
2018-12-04T20:40:01.615Z,5.85
2018-12-04T20:42:29.165Z,5.95
2018-12-04T20:44:57.032Z,5.40
2018-12-04T20:47:24.905Z,5.65
2018-12-04T20:49:52.479Z,6.10
2018-12-04T20:52:20.054Z,5.70
2018-12-04T20:54:47.618Z,5.85
2018-12-04T20:57:15.501Z,7.12
2018-12-04T20:59:43.267Z,7.80
2018-12-04T21:02:11.132Z,7.08
2018-12-04T21:04:38.670Z,10.20
2018-12-04T21:07:06.370Z,7.22
2018-12-04T21:09:34.306Z,6.08
2018-12-04T21:12:01.958Z,6.75
2018-12-04T21:14:29.539Z,6.15
2018-12-04T21:16:57.086Z,7.00
2018-12-04T21:19:24.882Z,6.35
2018-12-04T21:21:52.439Z,6.83
2018-12-04T21:24:20.208Z,8.05
2018-12-04T21:26:47.804Z,7.62
2018-12-04T21:29:21.019Z,7.70
2018-12-04T21:31:54.519Z,6.62
2018-12-04T21:34:27.707Z,7.30
2018-12-04T21:37:01.031Z,6.05
2018-12-04T21:39:30.551Z,6.92
2018-12-04T21:42:00.050Z,7.62
2018-12-04T21:44:33.366Z,8.00
2018-12-04T21:47:06.543Z,7.50
2018-12-04T21:49:34.153Z,7.60
2018-12-04T21:52:01.762Z,7.67
2018-12-04T21:54:29.406Z,7.45
2018-12-04T21:56:56.970Z,7.03
2018-12-04T21:59:24.546Z,10.08
2018-12-04T22:01:52.225Z,9.30
2018-12-04T22:04:19.794Z,7.92
2018-12-04T22:06:47.326Z,8.85
2018-12-04T22:09:14.941Z,7.75
2018-12-04T22:11:42.510Z,7.70
2018-12-04T22:14:10.079Z,8.50
2018-12-04T22:16:37.762Z,9.05
2018-12-04T22:19:05.331Z,7.70
2018-12-04T22:21:32.909Z,8.30
2018-12-04T22:24:00.475Z,7.08
2018-12-04T22:26:28.052Z,7.33
2018-12-04T22:28:55.614Z,6.78
2018-12-04T22:31:23.195Z,7.70
2018-12-04T22:33:50.876Z,6.30
2018-12-04T22:36:18.551Z,7.00
2018-12-04T22:38:46.210Z,6.75
2018-12-04T22:41:13.889Z,6.53
2018-12-04T22:43:41.568Z,6.10
2018-12-04T22:46:09.137Z,5.87
2018-12-04T22:48:36.714Z,5.65
2018-12-04T22:51:04.382Z,6.22
2018-12-04T22:53:32.023Z,5.60
2018-12-04T22:55:59.575Z,5.12
2018-12-04T22:58:27.127Z,6.58
2018-12-04T23:00:54.706Z,6.70
2018-12-04T23:03:22.346Z,6.00
2018-12-04T23:05:49.926Z,5.30
2018-12-04T23:08:17.513Z,4.90
2018-12-04T23:10:45.169Z,4.97
2018-12-04T23:13:12.910Z,4.70
2018-12-04T23:15:40.526Z,5.00
2018-12-04T23:18:08.204Z,4.65
2018-12-04T23:20:35.782Z,4.90
2018-12-04T23:23:03.442Z,5.65
2018-12-04T23:25:31.010Z,5.65
2018-12-04T23:27:58.603Z,5.37
2018-12-04T23:30:26.139Z,4.85
2018-12-04T23:32:53.733Z,5.20
2018-12-04T23:35:21.410Z,4.80
2018-12-04T23:37:48.965Z,4.15
2018-12-04T23:40:16.546Z,4.67
2018-12-04T23:42:44.219Z,4.87
2018-12-04T23:45:11.905Z,3.67
2018-12-04T23:47:39.449Z,5.35
2018-12-04T23:50:07.146Z,4.90
2018-12-04T23:52:34.727Z,5.03
2018-12-04T23:55:02.398Z,5.12
2018-12-04T23:57:29.926Z,4.85
2018-12-04T23:59:57.518Z,4.80
